createdAt,value
2019-03-30T00:00:42.782Z,1.74
2019-03-30T00:01:42.780Z,1.72
2019-03-30T00:02:42.758Z,1.75
2019-03-30T00:03:42.777Z,1.63
2019-03-30T00:04:42.734Z,1.61
2019-03-30T00:05:42.908Z,1.61
2019-03-30T00:06:42.723Z,1.64
2019-03-30T00:07:42.716Z,1.64
2019-03-30T00:08:42.730Z,1.65
2019-03-30T00:09:42.676Z,1.67
2019-03-30T00:10:42.667Z,1.64
2019-03-30T00:11:42.660Z,1.50
2019-03-30T00:12:42.651Z,1.57
2019-03-30T00:13:42.641Z,1.54
2019-03-30T00:14:42.806Z,1.57
2019-03-30T00:15:42.612Z,1.63
2019-03-30T00:16:42.605Z,1.67
2019-03-30T00:17:42.593Z,1.74
2019-03-30T00:18:42.592Z,1.70
2019-03-30T00:19:42.586Z,1.74
2019-03-30T00:20:42.606Z,1.68
2019-03-30T00:21:42.548Z,1.70
2019-03-30T00:22:42.539Z,1.65
2019-03-30T00:23:42.528Z,1.60
2019-03-30T00:24:42.520Z,1.60
2019-03-30T00:25:42.527Z,1.60
2019-03-30T00:26:42.537Z,1.50
2019-03-30T00:27:42.489Z,1.57
2019-03-30T00:28:42.478Z,1.64
2019-03-30T00:29:42.664Z,1.67
2019-03-30T00:30:42.457Z,1.64
2019-03-30T00:31:42.461Z,1.79
2019-03-30T00:32:42.489Z,1.71
2019-03-30T00:33:42.427Z,1.67
2019-03-30T00:34:42.480Z,1.64
2019-03-30T00:35:42.432Z,1.61
2019-03-30T00:36:42.578Z,1.54
2019-03-30T00:37:42.420Z,1.60
2019-03-30T00:38:42.411Z,1.49
2019-03-30T00:39:42.359Z,1.49
2019-03-30T00:40:42.356Z,1.53
2019-03-30T00:41:42.336Z,1.52
2019-03-30T00:42:42.327Z,1.53
2019-03-30T00:43:42.361Z,1.54
2019-03-30T00:44:42.308Z,1.49
2019-03-30T00:45:42.289Z,1.52
2019-03-30T00:46:42.284Z,1.52
2019-03-30T00:47:42.272Z,1.63
2019-03-30T00:48:42.278Z,1.52
2019-03-30T00:49:48.911Z,1.52
2019-03-30T00:50:43.238Z,1.49
2019-03-30T00:51:42.234Z,1.53
2019-03-30T00:52:42.221Z,1.49
2019-03-30T00:53:48.971Z,1.50
2019-03-30T00:54:42.239Z,1.49
2019-03-30T00:55:42.193Z,1.53
2019-03-30T00:56:42.172Z,1.46
2019-03-30T00:57:42.170Z,1.44
2019-03-30T00:58:42.151Z,1.52
2019-03-30T00:59:42.683Z,1.46
2019-03-30T01:00:42.172Z,1.50
2019-03-30T01:01:42.122Z,1.44
2019-03-30T01:02:42.115Z,1.53
2019-03-30T01:03:43.297Z,1.52
2019-03-30T01:04:42.089Z,1.38
2019-03-30T01:05:42.084Z,1.35
2019-03-30T01:06:42.114Z,1.29
2019-03-30T01:07:42.055Z,1.38
2019-03-30T01:08:42.044Z,1.20
2019-03-30T01:09:42.049Z,1.26
2019-03-30T01:10:42.021Z,1.35
2019-03-30T01:11:42.027Z,1.28
2019-03-30T01:12:42.036Z,1.32
2019-03-30T01:13:42.146Z,1.28
2019-03-30T01:14:41.982Z,1.29
2019-03-30T01:15:41.973Z,1.34
2019-03-30T01:16:41.958Z,1.31
2019-03-30T01:17:41.963Z,1.31
2019-03-30T01:18:42.008Z,1.34
2019-03-30T01:19:41.939Z,1.29
2019-03-30T01:20:41.917Z,1.38
2019-03-30T01:21:41.905Z,1.42
2019-03-30T01:22:41.992Z,1.47
2019-03-30T01:23:41.935Z,1.46
2019-03-30T01:24:41.875Z,1.47
2019-03-30T01:25:41.864Z,1.38
2019-03-30T01:26:41.852Z,1.46
2019-03-30T01:27:41.849Z,1.50
2019-03-30T01:28:41.836Z,1.46
2019-03-30T01:29:41.868Z,1.28
2019-03-30T01:30:41.847Z,1.42
2019-03-30T01:31:41.798Z,1.36
2019-03-30T01:32:43.902Z,1.43
2019-03-30T01:33:41.777Z,1.46
2019-03-30T01:34:41.767Z,1.36
2019-03-30T01:35:41.784Z,1.38
2019-03-30T01:36:41.785Z,1.39
2019-03-30T01:37:41.734Z,1.42
2019-03-30T01:38:41.723Z,1.35
2019-03-30T01:39:41.717Z,1.38
2019-03-30T01:40:41.703Z,1.31
2019-03-30T01:41:41.700Z,1.34
2019-03-30T01:42:41.718Z,1.26
2019-03-30T01:43:41.685Z,1.18
2019-03-30T01:44:41.661Z,1.21
2019-03-30T01:45:41.650Z,1.31
2019-03-30T01:46:41.776Z,1.31
2019-03-30T01:47:41.636Z,1.21
2019-03-30T01:48:41.653Z,1.36
2019-03-30T01:49:41.611Z,1.42
2019-03-30T01:50:41.595Z,1.34
2019-03-30T01:51:41.788Z,1.20
2019-03-30T01:52:41.594Z,1.34
2019-03-30T01:53:41.576Z,1.26
2019-03-30T01:54:41.587Z,1.28
2019-03-30T01:55:41.544Z,1.26
2019-03-30T01:56:43.664Z,1.25
2019-03-30T01:57:41.519Z,1.17
2019-03-30T01:58:41.515Z,1.11
2019-03-30T01:59:41.507Z,1.18
2019-03-30T02:00:41.531Z,1.28
2019-03-30T02:01:41.480Z,1.31
2019-03-30T02:02:41.466Z,1.34
2019-03-30T02:03:41.458Z,1.34
2019-03-30T02:04:41.461Z,1.29
2019-03-30T02:05:58.462Z,1.16
2019-03-30T02:06:41.463Z,1.21
2019-03-30T02:07:41.411Z,1.20
2019-03-30T02:08:41.404Z,1.17
2019-03-30T02:09:41.395Z,1.25
2019-03-30T02:11:41.387Z,1.17
2019-03-30T02:12:41.400Z,1.08
2019-03-30T02:13:41.348Z,1.16
2019-03-30T02:14:41.342Z,1.29
2019-03-30T02:16:50.151Z,1.35
2019-03-30T02:17:50.170Z,1.13
2019-03-30T02:18:50.094Z,1.14
2019-03-30T02:19:50.088Z,1.02
2019-03-30T02:20:50.164Z,1.06
2019-03-30T02:21:50.062Z,0.99
2019-03-30T02:22:50.085Z,1.08
2019-03-30T02:23:50.077Z,1.04
2019-03-30T02:24:50.033Z,1.00
2019-03-30T02:26:50.009Z,1.04
2019-03-30T02:27:50.017Z,1.06
2019-03-30T02:28:50.021Z,1.06
2019-03-30T02:29:49.974Z,1.02
2019-03-30T02:31:49.956Z,1.11
2019-03-30T02:32:49.989Z,1.07
2019-03-30T02:33:49.956Z,1.07
2019-03-30T02:34:49.929Z,1.02
2019-03-30T02:36:13.001Z,1.06
2019-03-30T02:36:49.904Z,1.00
2019-03-30T02:37:49.889Z,1.04
2019-03-30T02:38:49.963Z,1.02
2019-03-30T02:40:49.871Z,0.98
2019-03-30T02:41:49.858Z,0.99
2019-03-30T02:42:49.834Z,1.00
2019-03-30T02:43:49.837Z,1.16
2019-03-30T02:45:04.309Z,1.25
2019-03-30T02:45:49.811Z,1.14
2019-03-30T02:46:49.801Z,1.17
2019-03-30T02:47:49.784Z,1.06
2019-03-30T02:48:49.786Z,1.04
2019-03-30T02:50:58.816Z,1.26
2019-03-30T02:51:58.790Z,1.16
2019-03-30T02:52:58.785Z,1.07
2019-03-30T02:55:12.220Z,0.82
2019-03-30T02:56:08.536Z,0.86
2019-03-30T02:57:07.481Z,0.88
2019-03-30T02:58:07.489Z,0.81
2019-03-30T02:59:09.474Z,0.88
2019-03-30T03:00:07.440Z,0.86
2019-03-30T03:01:07.479Z,0.88
2019-03-30T03:02:07.430Z,0.88
2019-03-30T03:03:07.417Z,0.80
2019-03-30T03:05:07.385Z,0.86
2019-03-30T03:06:07.427Z,0.96
2019-03-30T03:07:07.371Z,1.10
2019-03-30T03:08:07.358Z,0.96
2019-03-30T03:09:16.299Z,0.82
2019-03-30T03:10:07.337Z,0.92
2019-03-30T03:11:07.322Z,0.84
2019-03-30T03:12:07.371Z,0.82
2019-03-30T03:13:07.339Z,0.96
2019-03-30T03:14:09.365Z,0.88
2019-03-30T03:15:07.282Z,0.82
2019-03-30T03:16:07.281Z,0.80
2019-03-30T03:17:07.261Z,0.86
2019-03-30T03:18:07.269Z,0.93
2019-03-30T03:20:16.012Z,1.04
2019-03-30T03:21:15.983Z,0.93
2019-03-30T03:22:15.950Z,0.84
2019-03-30T03:24:24.700Z,0.84
2019-03-30T03:25:24.669Z,0.74
2019-03-30T03:26:24.650Z,0.59
2019-03-30T03:27:24.663Z,0.62
2019-03-30T03:29:33.383Z,0.89
2019-03-30T03:30:33.353Z,0.84
2019-03-30T03:31:33.342Z,0.89
2019-03-30T03:32:33.324Z,0.88
2019-03-30T03:33:33.367Z,0.74
2019-03-30T03:34:33.310Z,0.70
2019-03-30T03:35:33.288Z,0.75
2019-03-30T03:36:33.297Z,0.78
2019-03-30T03:38:42.057Z,0.86
2019-03-30T03:39:42.006Z,0.86
2019-03-30T03:40:42.000Z,0.82
2019-03-30T03:41:41.972Z,0.71
2019-03-30T03:43:50.763Z,0.81
2019-03-30T03:44:50.705Z,0.75
2019-03-30T03:45:50.673Z,0.72
2019-03-30T03:46:50.680Z,0.74
2019-03-30T03:48:59.447Z,0.78
2019-03-30T03:49:59.385Z,0.78
2019-03-30T03:50:59.372Z,0.72
2019-03-30T03:51:59.374Z,0.68
2019-03-30T03:52:59.349Z,0.64
2019-03-30T03:53:59.330Z,0.82
2019-03-30T03:54:59.374Z,0.77
2019-03-30T03:55:59.314Z,0.77
2019-03-30T03:58:08.078Z,0.75
2019-03-30T03:59:08.043Z,0.80
2019-03-30T04:00:08.066Z,0.72
2019-03-30T04:01:08.002Z,0.74
2019-03-30T04:02:08.012Z,0.75
2019-03-30T04:03:07.981Z,0.78
2019-03-30T04:04:07.972Z,0.71
2019-03-30T04:05:07.976Z,0.71
2019-03-30T04:06:08.000Z,0.71
2019-03-30T04:08:07.933Z,0.56
2019-03-30T04:09:07.921Z,0.59
2019-03-30T04:10:07.934Z,0.59
2019-03-30T04:11:07.907Z,0.63
2019-03-30T04:13:16.640Z,0.60
2019-03-30T04:14:16.626Z,0.56
2019-03-30T04:15:16.622Z,0.57
2019-03-30T04:16:16.577Z,0.60
2019-03-30T04:18:25.400Z,0.68
2019-03-30T04:19:25.343Z,0.60
2019-03-30T04:20:25.351Z,0.60
2019-03-30T04:21:42.406Z,0.56
2019-03-30T04:22:26.323Z,0.44
2019-03-30T04:23:25.352Z,0.48
2019-03-30T04:24:25.304Z,0.45
2019-03-30T04:25:25.319Z,0.48
2019-03-30T04:26:32.199Z,0.44
2019-03-30T04:27:25.263Z,0.35
2019-03-30T04:28:25.287Z,0.37
2019-03-30T04:29:25.246Z,0.15
2019-03-30T04:30:25.226Z,0.35
2019-03-30T04:31:33.039Z,0.33
2019-03-30T04:32:25.214Z,0.34
2019-03-30T04:33:25.192Z,0.28
2019-03-30T04:34:25.215Z,0.33
2019-03-30T04:35:25.173Z,0.30
2019-03-30T04:36:26.308Z,0.28
2019-03-30T04:37:25.162Z,0.41
2019-03-30T04:38:25.139Z,0.34
2019-03-30T04:39:25.170Z,0.33
2019-03-30T04:40:25.115Z,0.33
2019-03-30T04:41:40.064Z,0.38
2019-03-30T04:42:25.102Z,0.34
2019-03-30T04:43:25.102Z,0.37
2019-03-30T04:44:25.083Z,0.35
2019-03-30T04:45:44.640Z,0.34
2019-03-30T04:46:25.083Z,0.34
2019-03-30T04:47:25.082Z,0.30
2019-03-30T04:48:25.042Z,0.38
2019-03-30T04:49:25.021Z,0.25
2019-03-30T04:50:42.168Z,0.31
2019-03-30T04:51:25.005Z,0.23
2019-03-30T04:52:24.987Z,0.31
2019-03-30T04:53:25.034Z,0.37
2019-03-30T04:54:25.515Z,0.40
2019-03-30T04:55:25.053Z,0.45
2019-03-30T04:56:24.945Z,0.38
2019-03-30T04:58:33.698Z,0.56
2019-03-30T04:59:33.681Z,0.56
2019-03-30T05:00:34.950Z,0.52
2019-03-30T05:01:33.652Z,0.59
2019-03-30T05:02:34.385Z,0.68
2019-03-30T05:03:33.627Z,0.59
2019-03-30T05:04:40.654Z,0.57
2019-03-30T05:05:33.610Z,0.68
2019-03-30T05:06:33.631Z,0.77
2019-03-30T05:07:33.586Z,0.71
2019-03-30T05:08:33.588Z,0.72
2019-03-30T05:10:42.322Z,0.56
2019-03-30T05:11:42.336Z,0.60
2019-03-30T05:12:42.313Z,0.64
2019-03-30T05:13:42.275Z,0.60
2019-03-30T05:14:44.386Z,0.60
2019-03-30T05:15:42.246Z,0.60
2019-03-30T05:16:42.233Z,0.59
2019-03-30T05:17:47.418Z,0.64
2019-03-30T05:18:43.207Z,0.56
2019-03-30T05:19:42.443Z,0.64
2019-03-30T05:20:42.201Z,0.68
2019-03-30T05:21:42.178Z,0.71
2019-03-30T05:22:42.166Z,0.68
2019-03-30T05:23:42.154Z,0.62
2019-03-30T05:24:42.192Z,0.67
2019-03-30T05:25:42.168Z,0.72
2019-03-30T05:26:42.131Z,0.71
2019-03-30T05:27:42.112Z,0.70
2019-03-30T05:28:42.101Z,0.74
2019-03-30T05:29:42.090Z,0.72
2019-03-30T05:30:42.078Z,0.70
2019-03-30T05:31:42.107Z,0.72
2019-03-30T05:32:42.176Z,0.67
2019-03-30T05:33:42.048Z,0.68
2019-03-30T05:34:42.082Z,0.67
2019-03-30T05:35:42.025Z,0.67
2019-03-30T05:36:42.014Z,0.63
2019-03-30T05:37:42.005Z,0.72
2019-03-30T05:38:42.028Z,0.74
2019-03-30T05:39:41.985Z,0.82
2019-03-30T05:40:42.030Z,0.88
2019-03-30T05:41:41.960Z,0.89
2019-03-30T05:42:41.950Z,0.89
2019-03-30T05:43:58.711Z,0.80
2019-03-30T05:44:41.938Z,0.80
2019-03-30T05:45:41.923Z,0.80
2019-03-30T05:46:41.942Z,0.77
2019-03-30T05:47:41.939Z,0.86
2019-03-30T05:48:57.514Z,0.89
2019-03-30T05:49:41.875Z,0.80
2019-03-30T05:50:41.869Z,0.84
2019-03-30T05:51:41.862Z,0.72
2019-03-30T05:52:41.893Z,0.72
2019-03-30T05:54:41.841Z,0.74
2019-03-30T05:55:41.828Z,0.72
2019-03-30T05:56:41.800Z,0.74
2019-03-30T05:57:41.827Z,0.77
2019-03-30T05:59:10.688Z,0.88
2019-03-30T05:59:41.770Z,0.92
2019-03-30T06:00:41.771Z,0.99
2019-03-30T06:01:41.752Z,1.34
2019-03-30T06:02:41.812Z,1.39
2019-03-30T06:03:41.757Z,1.47
2019-03-30T06:04:41.715Z,1.42
2019-03-30T06:05:41.705Z,1.53
2019-03-30T06:06:41.732Z,1.50
2019-03-30T06:07:41.703Z,1.64
2019-03-30T06:08:42.697Z,2.00
2019-03-30T06:09:41.684Z,2.29
2019-03-30T06:10:41.652Z,2.86
2019-03-30T06:11:41.640Z,3.41
2019-03-30T06:12:41.662Z,3.95
2019-03-30T06:13:41.619Z,4.29
2019-03-30T06:14:41.619Z,4.72
2019-03-30T06:15:41.595Z,5.12
2019-03-30T06:16:41.584Z,5.45
2019-03-30T06:17:41.576Z,5.55
2019-03-30T06:18:41.603Z,5.84
2019-03-30T06:19:41.576Z,6.06
2019-03-30T06:20:41.701Z,6.43
2019-03-30T06:21:41.530Z,6.48
2019-03-30T06:22:41.519Z,6.39
2019-03-30T06:23:41.512Z,6.46
2019-03-30T06:24:41.532Z,6.39
2019-03-30T06:25:41.491Z,6.58
2019-03-30T06:26:41.501Z,6.94
2019-03-30T06:27:41.486Z,7.15
2019-03-30T06:28:41.495Z,7.15
2019-03-30T06:29:41.448Z,6.86
2019-03-30T06:30:41.434Z,6.82
2019-03-30T06:31:41.421Z,6.55
2019-03-30T06:32:41.429Z,6.40
2019-03-30T06:33:41.400Z,6.21
2019-03-30T06:34:41.441Z,6.45
2019-03-30T06:35:41.382Z,6.69
2019-03-30T06:36:41.469Z,6.51
2019-03-30T06:37:41.357Z,6.50
2019-03-30T06:38:41.351Z,6.58
2019-03-30T06:39:41.338Z,6.86
2019-03-30T06:40:41.362Z,7.11
2019-03-30T06:41:41.507Z,7.54
2019-03-30T06:42:41.303Z,7.81
2019-03-30T06:43:41.306Z,7.69
2019-03-30T06:44:41.291Z,7.60
2019-03-30T06:45:41.268Z,7.47
2019-03-30T06:46:41.284Z,7.41
2019-03-30T06:47:41.306Z,7.74
2019-03-30T06:48:41.236Z,7.85
2019-03-30T06:49:41.248Z,7.70
2019-03-30T06:50:41.227Z,7.69
2019-03-30T06:51:41.202Z,8.24
2019-03-30T06:52:51.016Z,8.63
2019-03-30T06:53:42.222Z,8.57
2019-03-30T06:54:41.170Z,8.46
2019-03-30T06:55:41.161Z,8.22
2019-03-30T06:56:41.165Z,8.04
2019-03-30T06:57:41.154Z,8.13
2019-03-30T06:58:41.126Z,8.14
2019-03-30T06:59:41.163Z,8.07
2019-03-30T07:00:41.114Z,7.96
2019-03-30T07:01:41.095Z,7.71
2019-03-30T07:02:41.094Z,7.36
2019-03-30T07:03:41.114Z,7.14
2019-03-30T07:04:41.061Z,7.11
2019-03-30T07:05:41.057Z,7.33
2019-03-30T07:06:41.040Z,7.45
2019-03-30T07:07:41.033Z,7.74
2019-03-30T07:08:41.023Z,8.13
2019-03-30T07:09:41.052Z,7.73
2019-03-30T07:10:40.992Z,7.45
2019-03-30T07:11:40.995Z,7.71
2019-03-30T07:12:40.974Z,7.85
2019-03-30T07:13:40.960Z,8.03
2019-03-30T07:14:40.957Z,8.13
2019-03-30T07:15:40.978Z,8.06
2019-03-30T07:16:40.950Z,8.00
2019-03-30T07:17:40.923Z,8.12
2019-03-30T07:18:40.926Z,8.25
2019-03-30T07:19:40.896Z,8.13
2019-03-30T07:20:40.905Z,7.91
2019-03-30T07:21:40.915Z,7.74
2019-03-30T07:22:40.877Z,7.85
2019-03-30T07:23:40.852Z,8.10
2019-03-30T07:24:40.853Z,8.49
2019-03-30T07:25:40.832Z,8.60
2019-03-30T07:26:40.830Z,8.49
2019-03-30T07:27:40.848Z,8.47
2019-03-30T07:28:40.810Z,8.18
2019-03-30T07:29:40.802Z,8.27
2019-03-30T07:30:40.779Z,8.37
2019-03-30T07:31:40.762Z,7.99
2019-03-30T07:32:40.763Z,8.04
2019-03-30T07:33:40.777Z,8.21
2019-03-30T07:34:41.843Z,8.17
2019-03-30T07:35:40.743Z,8.07
2019-03-30T07:36:40.709Z,8.13
2019-03-30T07:37:40.697Z,8.12
2019-03-30T07:38:40.699Z,8.10
2019-03-30T07:39:40.720Z,8.34
2019-03-30T07:40:40.664Z,8.06
2019-03-30T07:41:40.654Z,8.28
2019-03-30T07:42:40.639Z,8.54
2019-03-30T07:43:40.630Z,8.68
2019-03-30T07:44:40.631Z,8.78
2019-03-30T07:45:40.649Z,8.80
2019-03-30T07:46:40.598Z,8.78
2019-03-30T07:47:40.591Z,9.31
2019-03-30T07:48:40.573Z,9.13
2019-03-30T07:49:40.561Z,9.23
2019-03-30T07:50:40.566Z,9.08
2019-03-30T07:51:40.580Z,9.03
2019-03-30T07:52:40.535Z,9.08
2019-03-30T07:53:44.829Z,9.24
2019-03-30T07:54:40.511Z,9.45
2019-03-30T07:55:40.498Z,9.83
2019-03-30T07:56:40.494Z,9.62
2019-03-30T07:57:40.510Z,9.63
2019-03-30T07:58:40.475Z,9.80
2019-03-30T07:59:40.465Z,9.70
2019-03-30T08:00:40.447Z,9.96
2019-03-30T08:01:40.431Z,9.99
2019-03-30T08:02:40.427Z,9.63
2019-03-30T08:03:40.447Z,9.93
2019-03-30T08:04:40.404Z,9.73
2019-03-30T08:05:40.432Z,9.73
2019-03-30T08:06:40.385Z,9.73
2019-03-30T08:07:40.370Z,9.59
2019-03-30T08:08:40.367Z,9.53
2019-03-30T08:09:40.345Z,9.77
2019-03-30T08:10:40.350Z,10.04
2019-03-30T08:11:40.385Z,9.71
2019-03-30T08:12:40.334Z,9.62
2019-03-30T08:13:40.304Z,9.92
2019-03-30T08:14:40.311Z,9.71
2019-03-30T08:15:40.281Z,10.06
2019-03-30T08:16:40.276Z,10.28
2019-03-30T08:17:40.295Z,10.09
2019-03-30T08:18:40.246Z,10.25
2019-03-30T08:19:40.240Z,10.31
2019-03-30T08:20:40.240Z,10.14
2019-03-30T08:21:40.226Z,10.38
2019-03-30T08:22:40.214Z,10.29
2019-03-30T08:23:40.912Z,10.32
2019-03-30T08:24:40.183Z,10.49
2019-03-30T08:25:40.174Z,10.94
2019-03-30T08:26:40.192Z,11.01
2019-03-30T08:27:40.151Z,10.58
2019-03-30T08:28:40.183Z,10.47
2019-03-30T08:29:40.128Z,10.51
2019-03-30T08:30:40.117Z,10.54
2019-03-30T08:31:40.107Z,10.72
2019-03-30T08:32:40.123Z,10.62
2019-03-30T08:33:40.121Z,10.69
2019-03-30T08:34:40.224Z,10.62
2019-03-30T08:35:40.065Z,10.49
2019-03-30T08:36:40.050Z,10.36
2019-03-30T08:37:40.044Z,10.62
2019-03-30T08:38:40.047Z,10.54
2019-03-30T08:39:40.058Z,10.26
2019-03-30T08:40:40.005Z,10.44
2019-03-30T08:41:40.021Z,10.28
2019-03-30T08:42:40.123Z,10.42
2019-03-30T08:43:39.981Z,10.47
2019-03-30T08:44:41.100Z,10.49
2019-03-30T08:45:39.992Z,9.85
2019-03-30T08:46:39.950Z,10.16
2019-03-30T08:47:39.925Z,10.46
2019-03-30T08:48:39.921Z,10.66
2019-03-30T08:49:39.909Z,10.55
2019-03-30T08:50:39.910Z,10.76
2019-03-30T08:51:39.929Z,10.65
2019-03-30T08:52:39.867Z,10.63
2019-03-30T08:53:53.693Z,10.44
2019-03-30T08:54:40.873Z,10.90
2019-03-30T08:55:39.855Z,11.01
2019-03-30T08:56:39.824Z,11.08
2019-03-30T08:57:39.851Z,11.12
2019-03-30T08:58:39.813Z,11.08
2019-03-30T08:59:39.786Z,10.98
2019-03-30T09:00:39.788Z,10.95
2019-03-30T09:01:39.774Z,10.62
2019-03-30T09:02:39.795Z,10.78
2019-03-30T09:03:41.853Z,10.86
2019-03-30T09:04:39.754Z,10.60
2019-03-30T09:05:39.728Z,11.06
2019-03-30T09:06:39.720Z,11.31
2019-03-30T09:07:39.717Z,11.24
2019-03-30T09:08:42.420Z,11.20
2019-03-30T09:09:46.727Z,11.08
2019-03-30T09:10:39.694Z,10.98
2019-03-30T09:11:48.517Z,11.06
2019-03-30T09:12:46.747Z,11.12
2019-03-30T09:13:46.699Z,10.93
2019-03-30T09:14:46.695Z,10.76
2019-03-30T09:15:48.645Z,10.86
2019-03-30T09:16:48.185Z,10.99
2019-03-30T09:19:27.938Z,11.67
2019-03-30T09:21:51.077Z,11.13
2019-03-30T09:23:50.035Z,11.46
2019-03-30T09:26:08.287Z,11.57
2019-03-30T09:29:01.569Z,11.77
2019-03-30T09:30:15.118Z,11.96
2019-03-30T09:31:07.616Z,12.07
2019-03-30T09:33:20.247Z,12.38
2019-03-30T09:35:28.448Z,12.19
2019-03-30T09:36:48.231Z,12.05
2019-03-30T09:37:35.315Z,11.90
2019-03-30T09:38:38.520Z,12.00
2019-03-30T09:39:45.664Z,11.69
2019-03-30T09:41:53.147Z,11.96
2019-03-30T09:44:20.768Z,12.25
2019-03-30T09:47:00.573Z,12.26
2019-03-30T09:49:16.067Z,11.96
2019-03-30T09:50:24.592Z,11.90
2019-03-30T09:54:26.152Z,12.74
2019-03-30T09:55:27.347Z,12.63
2019-03-30T09:56:26.026Z,12.58
2019-03-30T09:58:34.927Z,12.38
2019-03-30T09:59:35.496Z,12.07
2019-03-30T10:00:34.774Z,11.88
2019-03-30T10:01:36.489Z,12.08
2019-03-30T10:03:43.502Z,12.70
2019-03-30T10:04:43.419Z,12.91
2019-03-30T10:05:44.138Z,12.91
2019-03-30T10:07:52.332Z,12.69
2019-03-30T10:08:52.091Z,12.92
2019-03-30T10:09:52.225Z,12.84
2019-03-30T10:10:52.073Z,12.79
2019-03-30T10:13:01.676Z,12.55
2019-03-30T10:14:01.009Z,12.31
2019-03-30T10:15:00.913Z,12.29
2019-03-30T10:16:00.925Z,12.31
2019-03-30T10:17:00.822Z,12.89
2019-03-30T10:18:00.780Z,12.89
2019-03-30T10:19:00.786Z,12.81
2019-03-30T10:20:04.643Z,12.95
2019-03-30T10:21:00.832Z,12.84
2019-03-30T10:22:07.569Z,12.95
2019-03-30T10:23:00.738Z,13.04
2019-03-30T10:24:00.718Z,13.39
2019-03-30T10:25:00.753Z,13.54
2019-03-30T10:26:00.696Z,13.24
2019-03-30T10:27:16.033Z,13.24
2019-03-30T10:28:00.669Z,12.99
2019-03-30T10:29:00.676Z,12.99
2019-03-30T10:30:00.647Z,12.92
2019-03-30T10:31:00.637Z,12.99
2019-03-30T10:32:00.644Z,13.44
2019-03-30T10:33:00.661Z,13.13
2019-03-30T10:34:00.607Z,13.19
2019-03-30T10:35:00.594Z,13.27
2019-03-30T10:36:07.651Z,13.46
2019-03-30T10:37:00.573Z,13.46
2019-03-30T10:38:00.563Z,13.75
2019-03-30T10:39:00.581Z,13.90
2019-03-30T10:40:00.541Z,13.75
2019-03-30T10:42:03.474Z,13.76
2019-03-30T10:43:07.601Z,13.47
2019-03-30T10:44:00.498Z,13.32
2019-03-30T10:45:00.540Z,13.59
2019-03-30T10:46:00.580Z,13.69
2019-03-30T10:47:00.478Z,13.80
2019-03-30T10:48:00.459Z,13.91
2019-03-30T10:49:00.469Z,13.81
2019-03-30T10:50:00.438Z,13.93
2019-03-30T10:51:01.063Z,13.51
2019-03-30T10:52:00.405Z,13.32
2019-03-30T10:53:00.410Z,13.32
2019-03-30T10:54:00.406Z,13.79
2019-03-30T10:55:02.482Z,13.47
2019-03-30T10:56:00.386Z,13.55
2019-03-30T10:57:00.386Z,13.81
2019-03-30T10:58:00.391Z,14.11
2019-03-30T10:59:00.349Z,14.30
2019-03-30T11:00:21.355Z,13.96
2019-03-30T11:01:00.326Z,13.93
2019-03-30T11:02:00.324Z,14.19
2019-03-30T11:03:00.336Z,14.16
2019-03-30T11:04:00.307Z,14.41
2019-03-30T11:05:08.052Z,14.13
2019-03-30T11:06:00.269Z,14.13
2019-03-30T11:07:00.283Z,14.05
2019-03-30T11:08:00.249Z,13.91
2019-03-30T11:09:00.218Z,13.96
2019-03-30T11:10:00.644Z,13.93
2019-03-30T11:11:00.216Z,13.94
2019-03-30T11:12:00.203Z,14.11
2019-03-30T11:13:00.214Z,14.13
2019-03-30T11:14:00.174Z,13.98
2019-03-30T11:15:00.346Z,13.94
2019-03-30T11:16:00.152Z,13.93
2019-03-30T11:17:00.149Z,13.96
2019-03-30T11:18:00.113Z,13.94
2019-03-30T11:19:00.154Z,13.86
2019-03-30T11:20:08.153Z,13.83
2019-03-30T11:21:01.055Z,13.98
2019-03-30T11:22:03.083Z,13.98
2019-03-30T11:23:00.069Z,13.99
2019-03-30T11:24:00.063Z,14.29
2019-03-30T11:25:08.053Z,14.09
2019-03-30T11:26:00.039Z,14.20
2019-03-30T11:27:00.033Z,14.36
2019-03-30T11:28:00.028Z,14.36
2019-03-30T11:29:00.015Z,14.52
2019-03-30T11:31:00.027Z,14.48
2019-03-30T11:31:59.991Z,14.72
2019-03-30T11:32:59.978Z,14.63
2019-03-30T11:34:01.083Z,14.69
2019-03-30T11:34:59.955Z,14.69
2019-03-30T11:35:59.936Z,14.67
2019-03-30T11:36:59.952Z,14.64
2019-03-30T11:37:59.897Z,14.80
2019-03-30T11:38:59.894Z,14.63
2019-03-30T11:39:59.919Z,14.87
2019-03-30T11:40:59.871Z,15.03
2019-03-30T11:41:59.861Z,14.85
2019-03-30T11:42:59.856Z,14.82
2019-03-30T11:43:59.846Z,14.90
2019-03-30T11:44:59.834Z,14.86
2019-03-30T11:45:59.866Z,14.82
2019-03-30T11:46:59.837Z,14.79
2019-03-30T11:47:59.801Z,14.86
2019-03-30T11:48:59.787Z,14.66
2019-03-30T11:49:59.761Z,14.71
2019-03-30T11:50:59.768Z,14.64
2019-03-30T11:51:59.803Z,14.67
2019-03-30T11:52:59.755Z,14.87
2019-03-30T11:53:59.749Z,15.11
2019-03-30T11:54:59.708Z,15.53
2019-03-30T11:55:59.716Z,15.66
2019-03-30T11:56:59.702Z,15.28
2019-03-30T11:57:59.736Z,14.90
2019-03-30T11:58:59.671Z,15.11
2019-03-30T11:59:59.671Z,14.94
2019-03-30T12:00:59.664Z,14.78
2019-03-30T12:01:59.650Z,15.16
2019-03-30T12:03:59.682Z,15.33
2019-03-30T12:04:59.624Z,15.13
2019-03-30T12:05:59.608Z,14.87
2019-03-30T12:06:59.639Z,15.04
2019-03-30T12:09:08.402Z,15.30
2019-03-30T12:10:08.302Z,15.15
2019-03-30T12:11:08.294Z,15.13
2019-03-30T12:12:08.318Z,15.37
2019-03-30T12:13:10.390Z,15.62
2019-03-30T12:14:08.243Z,15.60
2019-03-30T12:15:08.239Z,15.31
2019-03-30T12:16:08.222Z,15.04
2019-03-30T12:17:08.225Z,15.25
2019-03-30T12:18:08.237Z,15.46
2019-03-30T12:19:08.198Z,15.55
2019-03-30T12:20:08.187Z,15.64
2019-03-30T12:21:08.183Z,15.52
2019-03-30T12:22:15.159Z,15.59
2019-03-30T12:23:08.144Z,15.64
2019-03-30T12:24:08.182Z,15.46
2019-03-30T12:25:08.129Z,15.51
2019-03-30T12:26:08.162Z,15.52
2019-03-30T12:27:08.101Z,15.77
2019-03-30T12:28:08.107Z,15.80
2019-03-30T12:29:08.082Z,15.52
2019-03-30T12:30:08.083Z,15.80
2019-03-30T12:31:08.067Z,16.14
2019-03-30T12:32:12.528Z,16.08
2019-03-30T12:33:09.515Z,15.93
2019-03-30T12:34:15.082Z,15.92
2019-03-30T12:35:08.038Z,15.92
2019-03-30T12:36:08.024Z,16.22
2019-03-30T12:38:07.982Z,16.29
2019-03-30T12:39:08.034Z,16.32
2019-03-30T12:40:07.964Z,16.26
2019-03-30T12:41:15.073Z,16.59
2019-03-30T12:42:15.359Z,16.34
2019-03-30T12:43:15.034Z,16.54
2019-03-30T12:44:07.925Z,16.65
2019-03-30T12:45:15.271Z,16.88
2019-03-30T12:47:10.392Z,16.52
2019-03-30T12:48:08.683Z,16.59
2019-03-30T12:49:15.725Z,16.75
2019-03-30T12:50:08.662Z,17.38
2019-03-30T12:51:16.506Z,17.03
2019-03-30T12:52:09.011Z,16.77
2019-03-30T12:53:17.497Z,16.70
2019-03-30T12:54:16.845Z,16.47
2019-03-30T12:58:50.933Z,15.92
2019-03-30T12:59:51.770Z,16.30
2019-03-30T13:00:53.473Z,16.57
2019-03-30T13:01:45.499Z,16.60
2019-03-30T13:02:55.521Z,16.69
2019-03-30T13:03:51.761Z,17.22
2019-03-30T13:04:51.732Z,16.92
2019-03-30T13:05:53.696Z,16.69
2019-03-30T13:06:52.029Z,16.60
2019-03-30T13:11:42.395Z,17.24
2019-03-30T13:14:11.351Z,17.36
2019-03-30T13:15:24.755Z,17.12
2019-03-30T13:16:30.267Z,17.17
2019-03-30T13:17:18.956Z,17.28
2019-03-30T13:18:22.131Z,17.18
2019-03-30T13:19:10.158Z,17.66
2019-03-30T13:20:17.632Z,17.54
2019-03-30T13:21:10.148Z,17.53
2019-03-30T13:22:17.207Z,17.22
2019-03-30T13:24:40.802Z,17.28
2019-03-30T13:27:03.454Z,17.51
2019-03-30T13:28:09.817Z,16.99
2019-03-30T13:30:11.764Z,16.60
2019-03-30T13:31:21.657Z,16.92
2019-03-30T13:32:11.743Z,17.06
2019-03-30T13:33:22.422Z,16.62
2019-03-30T13:34:18.746Z,17.02
2019-03-30T13:36:42.607Z,16.60
2019-03-30T13:37:48.773Z,16.70
2019-03-30T13:38:48.728Z,16.65
2019-03-30T13:39:54.706Z,16.90
2019-03-30T13:40:48.710Z,17.09
2019-03-30T13:41:50.233Z,17.07
2019-03-30T13:42:52.759Z,16.90
2019-03-30T13:45:26.205Z,16.57
2019-03-30T13:46:34.252Z,16.67
2019-03-30T13:47:32.544Z,16.69
2019-03-30T13:48:33.875Z,17.06
2019-03-30T13:49:37.835Z,17.17
2019-03-30T13:50:36.389Z,17.12
2019-03-30T13:51:34.409Z,17.24
2019-03-30T13:52:37.436Z,17.32
2019-03-30T13:53:32.438Z,17.63
2019-03-30T13:54:38.596Z,17.38
2019-03-30T13:55:39.589Z,17.02
2019-03-30T13:56:32.399Z,16.69
2019-03-30T13:57:32.427Z,16.69
